Cadiz, Spain
Current Conditions -  °F | °C
As of 3:00 PM on Thursday 27 Nov 2014 (Local Time) from LERT Reporting Station
Moderate Rain Moderate Rain  
Wind Chill: 57°   Ceiling: 4500
Heat Index: 57°   Visibility: 4mi
Dew Point: 54°   Wind: 14mph
Humidity: 88%   Direction: 190°S
Pressure: 29.41"   Gusts: 25mph
Location:  36.53°N, 6.29°W
Report Text: LERT 271400Z 19012G22KT 140V230 6000 RA FEW015 OVC045CB 14/12 Q0996 NOSIG
Loading
Personal Weather Stations






























Interactive Weather Map New forecast layout! Learn more

10-Day Weather Forecast

Advertisements
Track Severe Weather on mobile